Time;durP1;ratioP1;P1;durP2;ratioP2;P2;SDS_P1;SDS_P2;PMS_P1;PMS_P2;Temp;Humidity;BMP_temperature;BMP_pressure;BME280_temperature;BME280_humidity;BME280_pressure;Samples;Min_cycle;Max_cycle;Signal;HPM_P1;HPM_P2
2023/07/09 00:01:42;;;;;;;7.30;2.47;;;17.40;99.90;;;;;;4932096;29;20340;-79
2023/07/09 00:04:11;;;;;;;2.70;2.45;;;17.30;99.90;;;;;;4948285;29;20671;-78
2023/07/09 00:06:37;;;;;;;5.47;3.03;;;17.30;99.90;;;;;;4934267;29;20050;-79
2023/07/09 00:09:04;;;;;;;3.03;2.53;;;17.20;99.90;;;;;;4952560;29;20490;-80
2023/07/09 00:11:30;;;;;;;4.00;2.20;;;17.20;99.90;;;;;;4953556;29;20032;-79
2023/07/09 00:13:56;;;;;;;6.43;2.58;;;17.10;99.90;;;;;;4934958;29;20019;-78
2023/07/09 00:16:24;;;;;;;9.55;2.88;;;17.20;99.90;;;;;;4952084;29;20412;-78
2023/07/09 00:18:51;;;;;;;4.57;2.27;;;17.20;99.90;;;;;;4934633;29;20396;-78
2023/07/09 00:21:20;;;;;;;7.10;3.00;;;17.20;99.90;;;;;;4933587;29;20058;-79
2023/07/09 00:23:48;;;;;;;8.48;2.22;;;17.20;99.90;;;;;;4917800;29;20055;-77
2023/07/09 00:26:15;;;;;;;3.53;2.10;;;17.20;99.90;;;;;;4935725;29;20071;-78
2023/07/09 00:28:44;;;;;;;2.25;2.05;;;17.20;99.90;;;;;;4936246;29;20628;-78
2023/07/09 00:31:16;;;;;;;3.63;2.38;;;17.20;99.90;;;;;;4954561;29;20033;-77
2023/07/09 00:33:47;;;;;;;5.72;3.10;;;17.20;99.90;;;;;;4954503;29;20031;-77
2023/07/09 00:36:20;;;;;;;7.22;2.60;;;17.20;99.90;;;;;;4953480;29;20027;-77
2023/07/09 00:38:47;;;;;;;5.55;2.47;;;17.10;99.90;;;;;;4943958;29;20062;-78
2023/07/09 00:41:17;;;;;;;10.23;3.20;;;17.10;99.90;;;;;;4942897;29;20484;-78
2023/07/09 00:43:44;;;;;;;3.95;2.60;;;17.10;99.90;;;;;;4954556;29;20024;-78
2023/07/09 00:46:16;;;;;;;2.47;2.20;;;17.10;99.90;;;;;;4936563;29;20054;-78
2023/07/09 00:48:43;;;;;;;3.55;2.05;;;17.00;99.90;;;;;;4953532;29;20038;-78
2023/07/09 00:51:14;;;;;;;5.28;2.17;;;16.90;99.90;;;;;;4954024;29;20023;-78
2023/07/09 00:53:45;;;;;;;2.83;2.38;;;16.80;99.90;;;;;;4936794;29;20034;-78
2023/07/09 00:56:32;;;;;;;3.90;2.78;;;16.70;99.90;;;;;;4936992;29;20499;-79
2023/07/09 00:59:04;;;;;;;9.63;3.38;;;16.70;99.90;;;;;;4936008;29;20527;-76
2023/07/09 01:01:30;;;;;;;2.97;2.70;;;16.70;99.90;;;;;;4936418;29;20046;-78
2023/07/09 01:03:59;;;;;;;4.13;2.35;;;16.70;99.90;;;;;;4953753;29;20019;-78
2023/07/09 01:06:44;;;;;;;3.63;2.80;;;16.80;99.90;;;;;;4936355;29;20030;-78
2023/07/09 01:09:10;;;;;;;4.18;2.30;;;16.80;99.90;;;;;;4953883;29;20271;-77
2023/07/09 01:11:38;;;;;;;2.70;2.33;;;16.80;99.90;;;;;;4953719;29;20020;-77
2023/07/09 01:14:06;;;;;;;2.22;1.92;;;16.60;99.90;;;;;;4936395;29;20035;-78
2023/07/09 01:16:37;;;;;;;5.30;2.60;;;16.60;99.90;;;;;;4953002;28;20106;-77
2023/07/09 01:19:04;;;;;;;4.05;2.40;;;16.60;99.90;;;;;;4953202;29;20028;-77
2023/07/09 01:21:30;;;;;;;13.50;3.35;;;16.50;99.90;;;;;;4936054;29;20054;-78
2023/07/09 01:23:57;;;;;;;7.18;2.65;;;16.60;99.90;;;;;;4936085;29;20023;-77
2023/07/09 01:26:25;;;;;;;3.45;2.28;;;16.50;99.90;;;;;;4935899;29;20393;-78
2023/07/09 01:28:52;;;;;;;4.17;2.43;;;16.40;99.90;;;;;;4936082;29;20050;-78
2023/07/09 01:31:17;;;;;;;9.68;3.13;;;16.40;99.90;;;;;;4953369;29;20047;-78
2023/07/09 01:33:44;;;;;;;2.78;2.42;;;16.40;99.90;;;;;;4953260;29;20019;-77
2023/07/09 01:36:13;;;;;;;3.88;2.25;;;16.40;99.90;;;;;;4935934;29;20143;-78
2023/07/09 01:38:39;;;;;;;6.90;2.72;;;16.40;99.90;;;;;;4952487;29;20015;-77
2023/07/09 01:41:05;;;;;;;10.90;3.58;;;16.40;99.90;;;;;;4935737;29;20407;-77
2023/07/09 01:43:32;;;;;;;9.43;2.88;;;16.40;99.90;;;;;;4935820;29;20030;-78
2023/07/09 01:45:58;;;;;;;11.43;3.65;;;16.40;99.90;;;;;;4952983;29;20047;-78
2023/07/09 01:48:25;;;;;;;3.15;2.75;;;16.40;99.90;;;;;;4952778;29;20026;-78
2023/07/09 01:50:51;;;;;;;4.63;2.42;;;16.30;99.90;;;;;;4953237;29;20228;-78
2023/07/09 01:53:24;;;;;;;10.35;2.50;;;16.40;99.90;;;;;;4935726;29;20032;-77
2023/07/09 01:55:51;;;;;;;8.85;2.90;;;16.40;99.90;;;;;;4953281;29;20046;-77
2023/07/09 01:58:17;;;;;;;5.07;2.80;;;16.40;99.90;;;;;;4935595;29;20039;-78
2023/07/09 02:00:44;;;;;;;6.03;3.08;;;16.40;99.90;;;;;;4952353;29;20094;-78
2023/07/09 02:03:10;;;;;;;3.25;1.98;;;16.40;99.90;;;;;;4935047;29;20027;-78
2023/07/09 02:05:36;;;;;;;2.63;1.75;;;16.30;99.90;;;;;;4952756;29;20452;-77
2023/07/09 02:08:03;;;;;;;6.95;2.83;;;16.40;99.90;;;;;;4935321;29;20074;-77
2023/07/09 02:10:29;;;;;;;6.90;3.30;;;16.40;99.90;;;;;;4935548;29;20027;-77
2023/07/09 02:12:54;;;;;;;2.85;2.17;;;16.40;99.90;;;;;;4952642;29;20435;-77
2023/07/09 02:15:20;;;;;;;6.18;2.47;;;16.20;99.90;;;;;;4949419;29;20023;-78
2023/07/09 02:17:46;;;;;;;3.85;2.80;;;16.20;99.90;;;;;;4944569;29;20026;-80
2023/07/09 02:20:13;;;;;;;3.00;1.98;;;16.20;99.90;;;;;;4929991;29;20115;-77
2023/07/09 02:22:40;;;;;;;4.45;2.30;;;16.20;99.90;;;;;;4914663;29;20027;-78
2023/07/09 02:25:07;;;;;;;3.05;2.80;;;16.10;99.90;;;;;;4932621;29;20028;-79
2023/07/09 02:27:33;;;;;;;3.67;2.63;;;15.90;99.90;;;;;;4932673;29;20028;-79
2023/07/09 02:29:59;;;;;;;3.40;2.50;;;15.90;99.90;;;;;;4932945;29;20020;-79
2023/07/09 02:32:28;;;;;;;4.90;3.17;;;15.80;99.90;;;;;;4932146;29;20039;-79
2023/07/09 02:34:54;;;;;;;4.05;2.92;;;15.80;99.90;;;;;;4917306;29;20039;-78
2023/07/09 02:37:23;;;;;;;3.70;2.22;;;15.80;99.90;;;;;;4896026;29;20540;-83
2023/07/09 02:39:49;;;;;;;5.10;2.70;;;15.90;99.90;;;;;;4896672;29;20048;-79
2023/07/09 02:42:17;;;;;;;11.60;4.20;;;16.00;99.90;;;;;;4913611;29;20098;-83
2023/07/09 02:44:44;;;;;;;4.43;2.40;;;15.90;99.90;;;;;;4896738;29;20556;-83
2023/07/09 02:47:11;;;;;;;12.20;3.15;;;15.90;99.90;;;;;;4896609;29;20020;-79
2023/07/09 02:49:38;;;;;;;5.35;3.53;;;15.90;99.90;;;;;;4912908;29;20056;-78
2023/07/09 02:52:04;;;;;;;7.70;3.17;;;15.80;99.90;;;;;;4913381;29;20108;-79
2023/07/09 02:54:30;;;;;;;7.45;2.72;;;15.80;99.90;;;;;;4896119;29;20054;-79
2023/07/09 02:56:55;;;;;;;3.40;2.45;;;15.80;99.90;;;;;;4895868;29;20473;-80
2023/07/09 02:59:21;;;;;;;7.70;3.28;;;15.90;99.90;;;;;;4896314;29;20501;-79
2023/07/09 03:01:47;;;;;;;7.03;3.33;;;15.90;99.90;;;;;;4896433;29;20038;-81
2023/07/09 03:04:14;;;;;;;4.90;3.00;;;15.90;99.90;;;;;;4913119;29;20021;-83
2023/07/09 03:06:40;;;;;;;5.78;2.95;;;16.00;99.90;;;;;;4896513;29;20496;-80
2023/07/09 03:09:06;;;;;;;4.57;3.30;;;16.00;99.90;;;;;;4896095;29;20107;-80
2023/07/09 03:11:33;;;;;;;4.85;3.00;;;16.00;99.90;;;;;;4929407;29;20035;-78
2023/07/09 03:13:59;;;;;;;15.18;3.58;;;16.10;99.90;;;;;;4914846;29;20086;-79
2023/07/09 03:16:30;;;;;;;10.15;3.00;;;16.10;99.90;;;;;;4914450;29;20028;-78
2023/07/09 03:18:55;;;;;;;14.95;4.90;;;16.00;99.90;;;;;;4932090;29;20028;-81
2023/07/09 03:21:23;;;;;;;3.88;2.58;;;16.00;99.90;;;;;;4915174;29;20056;-79
2023/07/09 03:23:48;;;;;;;6.40;2.78;;;16.00;99.90;;;;;;4945312;29;20084;-78
2023/07/09 03:26:14;;;;;;;4.25;2.83;;;15.90;99.90;;;;;;4929729;29;20035;-79
2023/07/09 03:28:40;;;;;;;3.95;2.95;;;15.90;99.90;;;;;;4940795;29;20028;-81
2023/07/09 03:31:06;;;;;;;6.82;3.33;;;15.90;99.90;;;;;;4941521;29;20131;-78
2023/07/09 03:33:32;;;;;;;11.43;3.05;;;15.80;99.90;;;;;;4934931;29;20114;-78
2023/07/09 03:35:58;;;;;;;9.50;3.15;;;15.70;99.90;;;;;;4913131;29;20023;-79
2023/07/09 03:38:23;;;;;;;5.07;2.25;;;15.70;99.90;;;;;;4930747;29;20042;-78
2023/07/09 03:40:53;;;;;;;5.15;2.22;;;15.60;99.90;;;;;;4932845;29;20046;-78
2023/07/09 03:43:19;;;;;;;8.68;2.85;;;15.50;99.90;;;;;;4917263;29;20139;-78
2023/07/09 03:45:46;;;;;;;2.50;2.30;;;15.60;99.90;;;;;;4917216;29;20087;-78
2023/07/09 03:48:12;;;;;;;6.70;2.85;;;15.60;99.90;;;;;;4917512;29;20023;-78
2023/07/09 03:50:38;;;;;;;5.38;2.25;;;15.50;99.90;;;;;;4935518;29;20042;-77
2023/07/09 03:53:05;;;;;;;4.22;2.35;;;15.70;99.90;;;;;;4919414;29;20024;-78
2023/07/09 03:55:31;;;;;;;5.68;2.53;;;15.60;99.90;;;;;;4919073;29;20031;-78
2023/07/09 03:57:57;;;;;;;11.52;2.63;;;15.70;99.90;;;;;;4918857;29;20035;-77
2023/07/09 04:00:25;;;;;;;2.95;2.45;;;15.60;99.90;;;;;;4918885;29;20288;-77
2023/07/09 04:02:51;;;;;;;4.68;2.03;;;15.70;99.90;;;;;;4918821;29;20436;-78
2023/07/09 04:05:17;;;;;;;9.85;2.85;;;15.70;99.90;;;;;;4918342;29;20055;-78
2023/07/09 04:07:44;;;;;;;12.40;3.50;;;15.70;99.90;;;;;;4918464;29;20457;-78
2023/07/09 04:10:09;;;;;;;3.33;2.88;;;15.80;99.90;;;;;;4935635;29;20024;-77
2023/07/09 04:12:36;;;;;;;3.33;2.40;;;15.80;99.90;;;;;;4918541;29;20028;-77
2023/07/09 04:15:03;;;;;;;4.40;2.67;;;15.90;99.90;;;;;;4935717;29;20023;-77
2023/07/09 04:17:29;;;;;;;3.15;2.22;;;15.90;99.90;;;;;;4918715;29;20094;-77
2023/07/09 04:19:54;;;;;;;5.50;2.92;;;16.00;99.90;;;;;;4936541;29;20117;-78
2023/07/09 04:22:21;;;;;;;7.03;2.83;;;15.90;99.90;;;;;;4954560;29;20031;-78
2023/07/09 04:24:46;;;;;;;4.05;2.17;;;16.00;99.90;;;;;;4954443;29;20027;-77
2023/07/09 04:27:13;;;;;;;12.05;3.80;;;16.20;99.90;;;;;;4937301;29;20019;-77
2023/07/09 04:29:40;;;;;;;4.78;2.67;;;16.20;99.90;;;;;;4937275;29;20043;-77
2023/07/09 04:32:08;;;;;;;4.70;1.95;;;16.20;99.90;;;;;;4937226;29;20387;-78
2023/07/09 04:34:34;;;;;;;5.63;2.65;;;16.20;99.90;;;;;;4936831;29;20086;-77
2023/07/09 04:36:59;;;;;;;4.47;2.22;;;16.20;99.90;;;;;;4936923;29;20035;-77
2023/07/09 04:39:25;;;;;;;6.10;2.40;;;16.20;99.90;;;;;;4937024;29;20027;-77
2023/07/09 04:41:50;;;;;;;4.88;2.60;;;16.30;99.90;;;;;;4953799;29;20412;-78
2023/07/09 04:44:16;;;;;;;4.65;2.60;;;16.50;99.90;;;;;;4937008;29;20070;-78
2023/07/09 04:46:42;;;;;;;10.18;2.33;;;16.60;99.90;;;;;;4936973;29;20027;-77
2023/07/09 04:49:10;;;;;;;6.85;3.33;;;16.70;99.90;;;;;;4936824;29;20086;-78
2023/07/09 04:51:36;;;;;;;4.45;2.58;;;16.80;99.90;;;;;;4935840;29;20070;-78
2023/07/09 04:54:03;;;;;;;7.80;3.17;;;16.80;99.90;;;;;;4954202;29;20027;-79
2023/07/09 04:56:29;;;;;;;8.43;3.55;;;16.80;99.90;;;;;;4936721;29;20034;-78
2023/07/09 04:58:55;;;;;;;5.05;2.45;;;17.00;99.90;;;;;;4936730;29;20035;-78
2023/07/09 05:01:21;;;;;;;6.20;2.80;;;17.10;99.90;;;;;;4953899;29;20515;-79
2023/07/09 05:03:46;;;;;;;5.00;2.85;;;17.30;99.90;;;;;;4936699;29;20034;-79
2023/07/09 05:06:13;;;;;;;10.45;3.15;;;17.60;99.90;;;;;;4936242;29;20075;-79
2023/07/09 05:08:38;;;;;;;6.20;2.85;;;17.90;99.90;;;;;;4953981;29;20054;-78
2023/07/09 05:11:04;;;;;;;4.45;2.63;;;18.10;99.90;;;;;;4936506;29;20059;-79
2023/07/09 05:13:30;;;;;;;4.10;2.55;;;18.20;99.90;;;;;;4953745;29;20538;-79
2023/07/09 05:15:55;;;;;;;6.00;2.65;;;18.30;99.90;;;;;;4936353;29;20027;-78
2023/07/09 05:18:21;;;;;;;4.05;2.42;;;18.40;99.90;;;;;;4936266;29;20027;-79
2023/07/09 05:20:48;;;;;;;4.82;3.13;;;18.40;99.90;;;;;;4935650;29;20110;-79
2023/07/09 05:23:13;;;;;;;3.95;2.58;;;18.50;99.90;;;;;;4953590;29;20034;-79
2023/07/09 05:25:39;;;;;;;13.60;3.42;;;18.60;99.90;;;;;;4937341;29;20036;-78
2023/07/09 05:28:05;;;;;;;5.57;2.42;;;18.70;99.90;;;;;;4916817;29;20306;-78
2023/07/09 05:30:31;;;;;;;5.95;2.88;;;18.80;99.90;;;;;;4933394;29;20077;-78
2023/07/09 05:32:57;;;;;;;7.88;2.92;;;18.90;99.90;;;;;;4916656;29;20027;-78
2023/07/09 05:35:27;;;;;;;6.03;2.15;;;18.90;99.90;;;;;;4916597;29;20476;-79
2023/07/09 05:37:53;;;;;;;3.65;2.65;;;19.00;99.90;;;;;;4916863;29;20110;-78
2023/07/09 05:40:19;;;;;;;5.90;3.13;;;19.10;99.90;;;;;;4916863;29;20046;-78
2023/07/09 05:42:44;;;;;;;6.32;3.22;;;19.20;99.90;;;;;;4916689;29;20024;-79
2023/07/09 05:45:11;;;;;;;3.70;2.67;;;19.30;99.90;;;;;;4916865;29;20083;-78
2023/07/09 05:47:36;;;;;;;6.80;2.55;;;19.40;99.90;;;;;;4934111;29;20098;-77
2023/07/09 05:50:04;;;;;;;3.03;2.08;;;19.70;99.90;;;;;;4933781;29;20023;-79
2023/07/09 05:52:29;;;;;;;7.65;2.83;;;19.70;99.90;;;;;;4916827;29;20068;-79
2023/07/09 05:54:55;;;;;;;4.35;3.08;;;19.80;99.90;;;;;;4916839;29;20043;-79
2023/07/09 05:57:21;;;;;;;3.30;2.42;;;20.00;99.90;;;;;;4933907;29;20568;-79
2023/07/09 05:59:47;;;;;;;6.28;2.70;;;20.10;99.90;;;;;;4917022;29;20373;-78
2023/07/09 06:02:15;;;;;;;5.30;2.67;;;20.20;99.90;;;;;;4933777;29;20473;-78
2023/07/09 06:04:41;;;;;;;3.60;2.53;;;20.40;99.90;;;;;;4916071;29;20488;-78
2023/07/09 06:07:08;;;;;;;7.88;3.08;;;20.60;99.90;;;;;;4933748;29;20461;-78
2023/07/09 06:09:35;;;;;;;3.25;2.95;;;20.90;99.90;;;;;;4934017;29;20062;-78
2023/07/09 06:12:02;;;;;;;4.65;2.67;;;21.10;99.90;;;;;;4916530;29;20027;-78
2023/07/09 06:14:27;;;;;;;2.28;2.05;;;21.20;99.90;;;;;;4916761;29;20122;-78
2023/07/09 06:16:53;;;;;;;6.20;2.80;;;21.40;99.90;;;;;;4928518;29;20031;-78
2023/07/09 06:19:19;;;;;;;3.88;2.28;;;21.40;99.90;;;;;;4938022;29;20031;-78
2023/07/09 06:21:44;;;;;;;5.82;2.53;;;21.60;99.90;;;;;;4951169;29;20050;-78
2023/07/09 06:24:10;;;;;;;3.13;1.98;;;21.70;99.90;;;;;;4935261;29;20078;-78
2023/07/09 06:26:36;;;;;;;4.53;2.30;;;21.90;99.90;;;;;;4967551;28;20082;-78
2023/07/09 06:29:02;;;;;;;6.47;2.08;;;22.20;99.90;;;;;;4955429;29;20039;-78
2023/07/09 06:31:28;;;;;;;3.45;2.00;;;22.30;99.90;;;;;;4971428;28;20271;-78
2023/07/09 06:33:53;;;;;;;7.70;2.70;;;22.20;99.90;;;;;;4971299;28;20133;-79
2023/07/09 06:36:19;;;;;;;5.18;2.83;;;22.20;99.90;;;;;;4952745;29;20027;-78
2023/07/09 06:38:45;;;;;;;3.65;2.40;;;22.20;99.90;;;;;;4952260;29;20379;-78
2023/07/09 06:41:13;;;;;;;4.78;1.98;;;22.40;99.90;;;;;;4938203;29;20055;-79
2023/07/09 06:43:39;;;;;;;6.25;2.65;;;22.90;99.90;;;;;;4944823;29;20078;-78
2023/07/09 06:46:06;;;;;;;3.78;2.50;;;24.00;99.90;;;;;;4977106;28;20031;-79
2023/07/09 06:48:32;;;;;;;2.55;2.35;;;25.60;99.90;;;;;;4945320;29;20049;-79
2023/07/09 06:50:59;;;;;;;2.65;2.25;;;27.40;99.90;;;;;;4973331;28;20039;-78
2023/07/09 06:53:26;;;;;;;4.28;2.13;;;28.70;99.90;;;;;;4940661;29;20090;-79
2023/07/09 06:55:55;;;;;;;7.40;2.25;;;29.80;95.20;;;;;;4936322;29;20283;-79
2023/07/09 06:58:27;;;;;;;3.85;1.83;;;30.10;90.10;;;;;;4953350;29;20015;-79
2023/07/09 07:00:56;;;;;;;4.82;2.67;;;30.50;86.90;;;;;;4953768;29;20323;-79
2023/07/09 07:03:23;;;;;;;3.05;2.00;;;31.30;83.00;;;;;;4975879;28;20207;-80
2023/07/09 07:05:50;;;;;;;3.00;2.58;;;32.20;78.90;;;;;;4961381;29;20027;-79
2023/07/09 07:08:18;;;;;;;2.85;2.53;;;32.10;76.60;;;;;;4919844;29;20467;-80
2023/07/09 07:10:45;;;;;;;5.70;2.92;;;32.40;75.20;;;;;;4931361;29;20035;-80
2023/07/09 07:13:10;;;;;;;3.72;2.30;;;33.10;73.50;;;;;;4937036;29;20383;-80
2023/07/09 07:15:40;;;;;;;3.05;2.60;;;33.40;70.20;;;;;;4941206;29;20079;-79
2023/07/09 07:18:06;;;;;;;10.55;3.67;;;33.70;68.80;;;;;;4941957;29;20016;-79
2023/07/09 07:20:33;;;;;;;4.07;2.72;;;34.00;67.20;;;;;;4945941;29;20047;-79
2023/07/09 07:22:58;;;;;;;3.53;2.33;;;33.40;67.60;;;;;;4942238;29;20038;-78
2023/07/09 07:25:25;;;;;;;2.80;1.88;;;33.40;67.30;;;;;;4945054;29;20031;-79
2023/07/09 07:27:50;;;;;;;6.82;3.08;;;33.40;67.50;;;;;;4944444;29;20038;-80
2023/07/09 07:30:16;;;;;;;3.88;2.42;;;33.50;66.50;;;;;;4944795;29;20475;-80
2023/07/09 07:32:45;;;;;;;4.15;3.00;;;33.90;65.20;;;;;;4941786;29;20102;-79
2023/07/09 07:35:13;;;;;;;2.60;2.30;;;34.30;65.40;;;;;;4943522;29;20287;-79
2023/07/09 07:37:39;;;;;;;5.68;2.58;;;34.60;63.90;;;;;;4943122;29;20099;-80
2023/07/09 07:40:05;;;;;;;3.10;2.47;;;35.10;62.30;;;;;;4943280;29;20443;-80
2023/07/09 07:42:31;;;;;;;5.75;2.53;;;34.80;62.60;;;;;;4941631;29;20443;-79
2023/07/09 07:44:56;;;;;;;3.38;2.78;;;34.60;62.60;;;;;;4939699;29;20193;-79
2023/07/09 07:47:22;;;;;;;4.35;2.65;;;34.50;64.40;;;;;;4942647;29;20120;-78
2023/07/09 07:49:48;;;;;;;4.68;2.47;;;34.70;62.30;;;;;;4959546;29;20034;-79
2023/07/09 07:52:14;;;;;;;7.43;2.72;;;34.90;60.90;;;;;;4957018;29;20031;-78
2023/07/09 07:54:39;;;;;;;2.38;2.15;;;35.20;61.00;;;;;;4959138;29;20019;-79
2023/07/09 07:57:05;;;;;;;4.55;2.72;;;35.60;60.20;;;;;;4960899;29;20027;-79
2023/07/09 07:59:34;;;;;;;2.65;2.40;;;35.80;59.70;;;;;;4961638;29;20036;-79
2023/07/09 08:02:01;;;;;;;3.80;2.30;;;35.40;60.60;;;;;;4959371;29;20023;-78
2023/07/09 08:04:27;;;;;;;4.43;2.88;;;35.60;60.60;;;;;;4956802;29;20098;-79
2023/07/09 08:06:53;;;;;;;3.72;2.65;;;34.90;59.80;;;;;;4937685;29;20043;-79
2023/07/09 08:09:19;;;;;;;5.13;3.55;;;33.50;62.70;;;;;;4957408;29;20097;-79
2023/07/09 08:11:45;;;;;;;3.45;2.40;;;32.60;64.60;;;;;;4961791;29;20023;-78
2023/07/09 08:14:11;;;;;;;2.90;2.40;;;32.20;65.80;;;;;;4942999;29;20031;-78
2023/07/09 08:16:38;;;;;;;2.55;2.35;;;32.20;65.90;;;;;;4944628;29;20098;-78
2023/07/09 08:19:04;;;;;;;4.43;2.90;;;33.00;65.80;;;;;;4959966;29;20020;-79
2023/07/09 08:21:29;;;;;;;7.40;2.72;;;33.20;65.70;;;;;;4961112;28;20048;-78
2023/07/09 08:23:55;;;;;;;3.38;2.40;;;33.40;65.20;;;;;;4934780;29;20032;-78
2023/07/09 08:26:21;;;;;;;7.22;4.32;;;33.90;65.10;;;;;;4939668;29;20143;-78
2023/07/09 08:28:46;;;;;;;4.07;2.30;;;34.20;64.10;;;;;;4962061;29;20071;-75
2023/07/09 08:31:12;;;;;;;7.20;3.15;;;34.00;62.40;;;;;;4963471;29;20091;-73
2023/07/09 08:33:37;;;;;;;4.57;2.75;;;33.70;64.20;;;;;;4964076;29;20367;-73
2023/07/09 08:36:03;;;;;;;5.68;2.90;;;34.20;64.30;;;;;;4960901;29;20037;-74
2023/07/09 08:38:29;;;;;;;2.35;2.00;;;34.60;61.70;;;;;;4946114;29;20416;-73
2023/07/09 08:40:59;;;;;;;3.22;2.53;;;34.90;61.30;;;;;;4954397;29;20717;-74
2023/07/09 08:43:25;;;;;;;3.30;2.63;;;35.80;60.30;;;;;;4953033;29;20055;-73
2023/07/09 08:45:57;;;;;;;3.25;2.95;;;35.40;60.40;;;;;;4954281;29;20404;-73
2023/07/09 08:48:33;;;;;;;5.22;2.35;;;35.10;60.60;;;;;;4954593;29;20086;-74
2023/07/09 08:51:27;;;;;;;4.15;2.40;;;34.30;62.40;;;;;;4942517;29;20024;-73
2023/07/09 08:54:00;;;;;;;3.00;2.60;;;34.10;63.20;;;;;;4930521;29;20404;-73
2023/07/09 08:56:30;;;;;;;7.88;3.10;;;33.90;63.70;;;;;;4953045;29;20188;-75
2023/07/09 08:59:00;;;;;;;2.92;2.63;;;34.30;63.20;;;;;;4936270;29;20223;-74
2023/07/09 09:01:36;;;;;;;3.38;2.20;;;34.40;62.50;;;;;;4936862;29;20381;-73
2023/07/09 09:04:22;;;;;;;5.68;2.75;;;34.20;62.60;;;;;;4959683;29;20351;-73
2023/07/09 09:06:57;;;;;;;4.03;2.83;;;33.00;64.20;;;;;;4967302;28;20236;-73
2023/07/09 09:09:58;;;;;;;3.83;3.22;;;32.40;66.10;;;;;;4959035;28;20019;-73
2023/07/09 09:12:52;;;;;;;4.65;3.00;;;32.70;65.40;;;;;;4952291;29;20064;-74
2023/07/09 09:15:20;;;;;;;3.65;2.70;;;33.20;65.00;;;;;;4926663;29;20023;-75
2023/07/09 09:17:51;;;;;;;3.67;2.58;;;33.40;64.90;;;;;;4943229;29;20164;-73
2023/07/09 09:20:21;;;;;;;3.97;2.60;;;33.40;65.20;;;;;;4939178;29;20353;-74
2023/07/09 09:23:01;;;;;;;3.35;2.55;;;34.00;63.70;;;;;;4956820;29;20093;-73
2023/07/09 09:25:30;;;;;;;4.93;2.50;;;34.80;63.60;;;;;;4959031;29;20476;-74
2023/07/09 09:27:55;;;;;;;;;;;35.10;61.00;;;;;;4943048;29;20093;-73
2023/07/09 09:30:24;;;;;;;4.20;2.70;;;35.50;62.30;;;;;;4953874;29;19907;-74
2023/07/09 09:32:58;;;;;;;4.05;2.40;;;36.00;62.80;;;;;;4962900;29;20119;-73
2023/07/09 09:35:37;;;;;;;3.42;2.38;;;34.90;63.40;;;;;;4963700;29;20027;-73
2023/07/09 09:38:10;;;;;;;3.63;3.00;;;34.20;61.90;;;;;;4943221;29;20026;-73
2023/07/09 09:40:36;;;;;;;4.20;3.20;;;34.60;62.20;;;;;;4961576;29;20231;-73
2023/07/09 09:43:09;;;;;;;3.38;2.58;;;35.00;62.70;;;;;;4957337;29;20038;-74
2023/07/09 09:45:38;;;;;;;3.60;2.05;;;35.00;62.10;;;;;;4960239;29;20031;-73
2023/07/09 09:48:32;;;;;;;4.63;2.75;;;34.80;62.90;;;;;;4952824;29;20175;-74
2023/07/09 09:51:01;;;;;;;4.63;3.20;;;35.00;62.10;;;;;;4957162;29;20102;-74
2023/07/09 09:53:29;;;;;;;3.67;2.55;;;35.30;62.10;;;;;;4952844;29;20463;-75
2023/07/09 09:55:56;;;;;;;5.60;2.30;;;35.10;63.00;;;;;;4960719;29;20046;-74
2023/07/09 09:58:28;;;;;;;13.98;5.30;;;35.50;61.80;;;;;;4959023;29;20031;-74
2023/07/09 10:00:56;;;;;;;3.03;2.53;;;35.70;63.00;;;;;;4953544;29;20035;-75
2023/07/09 10:03:33;;;;;;;7.40;2.83;;;35.60;63.70;;;;;;4962187;29;20083;-75
2023/07/09 10:06:12;;;;;;;2.45;2.25;;;35.80;60.30;;;;;;4961923;29;20150;-74
2023/07/09 10:08:40;;;;;;;3.72;2.97;;;35.80;61.20;;;;;;4961108;29;20062;-74
2023/07/09 10:11:21;;;;;;;2.95;2.60;;;36.20;60.00;;;;;;4962347;29;20027;-73
2023/07/09 10:13:49;;;;;;;2.85;2.20;;;36.10;61.10;;;;;;4962599;29;20030;-73
2023/07/09 10:16:15;;;;;;;4.80;2.47;;;36.20;60.60;;;;;;4945406;29;20076;-74
2023/07/09 10:19:19;;;;;;;6.32;2.80;;;35.90;61.60;;;;;;4961623;29;20299;-74
2023/07/09 10:22:07;;;;;;;3.17;2.22;;;35.40;61.30;;;;;;4958472;29;20106;-74
2023/07/09 10:24:57;;;;;;;4.53;2.70;;;35.70;61.10;;;;;;4909857;29;20287;-74
2023/07/09 10:27:36;;;;;;;3.97;2.55;;;35.50;61.60;;;;;;4924849;29;20420;-74
2023/07/09 10:30:01;;;;;;;3.97;2.38;;;35.50;61.50;;;;;;4939031;29;20036;-74
2023/07/09 10:32:39;;;;;;;4.70;2.75;;;35.90;59.90;;;;;;4933653;29;20023;-74
2023/07/09 10:35:32;;;;;;;4.05;2.80;;;35.80;62.40;;;;;;4940985;29;20050;-74
2023/07/09 10:38:16;;;;;;;2.50;2.17;;;36.20;60.20;;;;;;4933694;29;20460;-73
2023/07/09 10:40:53;;;;;;;3.00;2.63;;;36.60;60.90;;;;;;4918253;29;20039;-74
2023/07/09 10:43:30;;;;;;;7.20;3.22;;;36.10;59.00;;;;;;4938351;29;20372;-74
2023/07/09 10:46:02;;;;;;;4.55;2.75;;;36.40;58.90;;;;;;4938465;29;20039;-75
2023/07/09 10:48:40;;;;;;;3.75;2.97;;;36.20;59.20;;;;;;4940783;29;20304;-74
2023/07/09 10:51:20;;;;;;;3.60;2.30;;;36.30;61.90;;;;;;4941374;29;20296;-74
2023/07/09 10:54:05;;;;;;;2.95;2.15;;;35.50;59.10;;;;;;4938366;29;20102;-74
2023/07/09 10:56:35;;;;;;;3.38;2.00;;;35.60;59.60;;;;;;4936316;29;20020;-74
2023/07/09 10:59:22;;;;;;;3.08;2.50;;;36.40;59.00;;;;;;4934809;29;20027;-74
2023/07/09 11:01:54;;;;;;;4.40;2.78;;;37.10;57.80;;;;;;4938160;29;20040;-74
2023/07/09 11:04:32;;;;;;;6.05;3.10;;;37.30;56.60;;;;;;4934501;29;20024;-75
2023/07/09 11:07:03;;;;;;;4.63;3.30;;;37.50;56.60;;;;;;4933427;29;20024;-74
2023/07/09 11:09:45;;;;;;;2.92;2.47;;;37.30;55.40;;;;;;4938489;29;20043;-75
2023/07/09 11:12:24;;;;;;;3.08;2.65;;;37.20;56.20;;;;;;4940342;29;20219;-74
2023/07/09 11:14:52;;;;;;;4.03;2.10;;;37.20;55.20;;;;;;4941209;29;20016;-75
2023/07/09 11:17:20;;;;;;;3.17;2.80;;;37.50;54.90;;;;;;4942915;29;20043;-73
2023/07/09 11:19:48;;;;;;;4.70;2.58;;;37.80;54.60;;;;;;4941948;29;20023;-74
2023/07/09 11:22:22;;;;;;;5.70;2.53;;;37.50;52.70;;;;;;4942027;29;20028;-74
2023/07/09 11:25:04;;;;;;;4.80;2.45;;;37.70;54.80;;;;;;4940492;29;20027;-74
2023/07/09 11:27:30;;;;;;;2.13;1.80;;;36.90;55.70;;;;;;4936503;29;20063;-74
2023/07/09 11:30:03;;;;;;;4.60;2.30;;;37.20;54.60;;;;;;4950015;29;20060;-74
2023/07/09 11:32:29;;;;;;;1.88;1.67;;;37.70;51.90;;;;;;4943918;29;20091;-75
2023/07/09 11:35:07;;;;;;;4.20;1.52;;;38.60;51.90;;;;;;4945289;29;20103;-75
2023/07/09 11:37:43;;;;;;;2.53;1.88;;;39.60;49.90;;;;;;4953849;29;20027;-74
2023/07/09 11:40:13;;;;;;;2.72;2.28;;;40.30;44.50;;;;;;4959313;29;20050;-74
2023/07/09 11:42:55;;;;;;;2.65;1.67;;;40.20;45.70;;;;;;4960281;29;20027;-72
2023/07/09 11:45:28;;;;;;;4.28;2.15;;;40.10;46.00;;;;;;4956634;29;20119;-73
2023/07/09 11:48:14;;;;;;;2.72;2.05;;;39.70;47.00;;;;;;4950268;29;20035;-74
2023/07/09 11:50:44;;;;;;;3.92;2.25;;;39.40;49.10;;;;;;4953840;29;20049;-74
2023/07/09 11:53:30;;;;;;;1.58;1.48;;;39.70;49.30;;;;;;4947455;29;20023;-73
2023/07/09 11:55:55;;;;;;;5.03;1.98;;;40.30;49.00;;;;;;4957564;29;20098;-75
2023/07/09 11:58:21;;;;;;;3.83;2.03;;;40.70;47.80;;;;;;4956932;29;20035;-74
2023/07/09 12:00:50;;;;;;;2.53;1.70;;;41.00;47.20;;;;;;4958285;28;20102;-74
2023/07/09 12:03:29;;;;;;;2.38;1.80;;;41.50;46.60;;;;;;4959854;29;20183;-74
2023/07/09 12:05:59;;;;;;;4.75;1.88;;;42.20;45.10;;;;;;4953730;29;20027;-76
2023/07/09 12:08:37;;;;;;;3.85;2.63;;;41.70;44.00;;;;;;4936151;29;20106;-75
2023/07/09 12:11:03;;;;;;;3.87;2.43;;;41.70;44.70;;;;;;4956564;29;20027;-75
2023/07/09 12:13:35;;;;;;;1.70;1.60;;;42.00;43.60;;;;;;4945158;29;20026;-74
2023/07/09 12:16:01;;;;;;;2.58;2.20;;;42.70;44.70;;;;;;4957988;29;20094;-74
2023/07/09 12:18:30;;;;;;;2.70;1.63;;;43.20;45.60;;;;;;4962050;29;20192;-74
2023/07/09 12:20:55;;;;;;;3.50;1.90;;;42.90;44.90;;;;;;4944520;29;20050;-74
2023/07/09 12:23:27;;;;;;;2.67;2.20;;;43.10;43.90;;;;;;4960332;29;20626;-76
2023/07/09 12:25:53;;;;;;;5.40;2.50;;;42.60;45.00;;;;;;4960531;29;20059;-74
2023/07/09 12:28:20;;;;;;;3.15;1.70;;;43.00;46.60;;;;;;4946159;29;20102;-74
2023/07/09 12:30:51;;;;;;;4.50;1.90;;;41.70;42.20;;;;;;4949238;29;20053;-74
2023/07/09 12:33:23;;;;;;;2.08;1.90;;;41.90;43.90;;;;;;4953499;29;20086;-75
2023/07/09 12:35:58;;;;;;;2.40;2.20;;;41.90;44.30;;;;;;4949098;28;20111;-77
2023/07/09 12:38:26;;;;;;;7.00;2.40;;;41.10;46.30;;;;;;4954104;28;20030;-75
2023/07/09 12:40:53;;;;;;;4.35;2.83;;;40.60;46.80;;;;;;4922219;29;20039;-77
2023/07/09 12:43:28;;;;;;;3.42;3.00;;;41.50;46.90;;;;;;4935811;29;20028;-76
2023/07/09 12:45:54;;;;;;;4.03;2.17;;;41.60;46.40;;;;;;4936598;29;20051;-74
2023/07/09 12:48:26;;;;;;;6.75;2.40;;;41.30;46.20;;;;;;4935916;29;20023;-74
2023/07/09 12:50:57;;;;;;;4.13;1.70;;;41.50;44.40;;;;;;4919295;29;20484;-76
2023/07/09 12:53:28;;;;;;;5.85;2.58;;;42.00;46.30;;;;;;4933336;29;20024;-74
2023/07/09 12:55:58;;;;;;;6.45;2.47;;;42.70;46.00;;;;;;4936890;29;20343;-77